sensor_id;sensor_type;location;lat;lon;timestamp;P1;durP1;ratioP1;P2;durP2;ratioP2
4921;SDS011;16625;53.624;10.106;2023-03-09T00:01:38;7.30;;;5.10;;
4921;SDS011;16625;53.624;10.106;2023-03-09T00:04:06;9.67;;;4.97;;
4921;SDS011;16625;53.624;10.106;2023-03-09T00:06:35;6.90;;;4.57;;
4921;SDS011;16625;53.624;10.106;2023-03-09T00:09:04;7.40;;;4.70;;
4921;SDS011;16625;53.624;10.106;2023-03-09T00:11:31;7.67;;;4.50;;
4921;SDS011;16625;53.624;10.106;2023-03-09T00:13:59;7.47;;;4.90;;
4921;SDS011;16625;53.624;10.106;2023-03-09T00:16:27;6.17;;;4.83;;
4921;SDS011;16625;53.624;10.106;2023-03-09T00:18:56;9.63;;;5.30;;
4921;SDS011;16625;53.624;10.106;2023-03-09T00:21:24;6.77;;;4.50;;
4921;SDS011;16625;53.624;10.106;2023-03-09T00:24:01;8.93;;;5.23;;
4921;SDS011;16625;53.624;10.106;2023-03-09T00:26:29;7.73;;;4.90;;
4921;SDS011;16625;53.624;10.106;2023-03-09T00:28:56;7.70;;;5.40;;
4921;SDS011;16625;53.624;10.106;2023-03-09T00:31:25;7.40;;;5.23;;
4921;SDS011;16625;53.624;10.106;2023-03-09T00:33:52;10.67;;;5.60;;
4921;SDS011;16625;53.624;10.106;2023-03-09T00:36:19;8.53;;;6.17;;
4921;SDS011;16625;53.624;10.106;2023-03-09T00:38:50;11.83;;;5.20;;
4921;SDS011;16625;53.624;10.106;2023-03-09T00:41:17;15.30;;;5.60;;
4921;SDS011;16625;53.624;10.106;2023-03-09T00:43:45;9.90;;;4.87;;
4921;SDS011;16625;53.624;10.106;2023-03-09T00:46:14;6.00;;;4.93;;
4921;SDS011;16625;53.624;10.106;2023-03-09T00:48:43;6.10;;;4.63;;
4921;SDS011;16625;53.624;10.106;2023-03-09T00:51:10;7.20;;;4.93;;
4921;SDS011;16625;53.624;10.106;2023-03-09T00:53:37;7.70;;;4.60;;
4921;SDS011;16625;53.624;10.106;2023-03-09T00:56:05;10.17;;;6.00;;
4921;SDS011;16625;53.624;10.106;2023-03-09T00:58:45;8.20;;;5.77;;
4921;SDS011;16625;53.624;10.106;2023-03-09T01:01:13;12.70;;;5.63;;
4921;SDS011;16625;53.624;10.106;2023-03-09T01:03:45;7.30;;;5.60;;
4921;SDS011;16625;53.624;10.106;2023-03-09T01:06:13;6.53;;;4.90;;
4921;SDS011;16625;53.624;10.106;2023-03-09T01:08:40;7.13;;;4.40;;
4921;SDS011;16625;53.624;10.106;2023-03-09T01:11:08;8.97;;;4.87;;
4921;SDS011;16625;53.624;10.106;2023-03-09T01:13:37;8.33;;;4.87;;
4921;SDS011;16625;53.624;10.106;2023-03-09T01:16:04;9.87;;;5.60;;
4921;SDS011;16625;53.624;10.106;2023-03-09T01:18:31;7.07;;;4.50;;
4921;SDS011;16625;53.624;10.106;2023-03-09T01:21:00;10.43;;;4.93;;
4921;SDS011;16625;53.624;10.106;2023-03-09T01:23:27;7.00;;;4.83;;
4921;SDS011;16625;53.624;10.106;2023-03-09T01:25:55;7.90;;;5.33;;
4921;SDS011;16625;53.624;10.106;2023-03-09T01:28:22;5.90;;;4.70;;
4921;SDS011;16625;53.624;10.106;2023-03-09T01:30:49;7.27;;;5.30;;
4921;SDS011;16625;53.624;10.106;2023-03-09T01:33:16;5.13;;;3.93;;
4921;SDS011;16625;53.624;10.106;2023-03-09T01:35:45;7.97;;;5.17;;
4921;SDS011;16625;53.624;10.106;2023-03-09T01:38:13;5.20;;;4.10;;
4921;SDS011;16625;53.624;10.106;2023-03-09T01:40:43;6.03;;;4.80;;
4921;SDS011;16625;53.624;10.106;2023-03-09T01:43:26;6.43;;;4.60;;
4921;SDS011;16625;53.624;10.106;2023-03-09T01:49:18;5.37;;;4.40;;
4921;SDS011;16625;53.624;10.106;2023-03-09T01:52:09;12.37;;;5.13;;
4921;SDS011;16625;53.624;10.106;2023-03-09T01:54:45;9.73;;;4.17;;
4921;SDS011;16625;53.624;10.106;2023-03-09T01:57:17;5.30;;;4.03;;
4921;SDS011;16625;53.624;10.106;2023-03-09T01:59:48;6.17;;;4.40;;
4921;SDS011;16625;53.624;10.106;2023-03-09T02:02:19;8.10;;;3.80;;
4921;SDS011;16625;53.624;10.106;2023-03-09T02:04:49;9.63;;;4.67;;
4921;SDS011;16625;53.624;10.106;2023-03-09T02:07:20;12.40;;;4.70;;
4921;SDS011;16625;53.624;10.106;2023-03-09T02:09:51;7.60;;;4.77;;
4921;SDS011;16625;53.624;10.106;2023-03-09T02:12:23;6.87;;;4.67;;
4921;SDS011;16625;53.624;10.106;2023-03-09T02:14:52;11.43;;;5.37;;
4921;SDS011;16625;53.624;10.106;2023-03-09T02:17:19;9.90;;;5.10;;
4921;SDS011;16625;53.624;10.106;2023-03-09T02:19:54;6.40;;;5.13;;
4921;SDS011;16625;53.624;10.106;2023-03-09T02:22:30;6.27;;;5.43;;
4921;SDS011;16625;53.624;10.106;2023-03-09T02:25:01;7.50;;;4.57;;
4921;SDS011;16625;53.624;10.106;2023-03-09T02:27:36;8.43;;;4.33;;
4921;SDS011;16625;53.624;10.106;2023-03-09T02:30:03;7.60;;;5.30;;
4921;SDS011;16625;53.624;10.106;2023-03-09T02:32:32;6.17;;;4.50;;
4921;SDS011;16625;53.624;10.106;2023-03-09T02:35:00;7.80;;;4.70;;
4921;SDS011;16625;53.624;10.106;2023-03-09T02:37:29;9.43;;;5.23;;
4921;SDS011;16625;53.624;10.106;2023-03-09T02:39:59;6.20;;;3.97;;
4921;SDS011;16625;53.624;10.106;2023-03-09T02:42:30;8.50;;;5.60;;
4921;SDS011;16625;53.624;10.106;2023-03-09T02:44:58;5.73;;;4.53;;
4921;SDS011;16625;53.624;10.106;2023-03-09T02:47:25;6.43;;;4.90;;
4921;SDS011;16625;53.624;10.106;2023-03-09T02:49:52;11.00;;;5.63;;
4921;SDS011;16625;53.624;10.106;2023-03-09T02:52:19;9.00;;;6.03;;
4921;SDS011;16625;53.624;10.106;2023-03-09T02:54:47;9.20;;;6.13;;
4921;SDS011;16625;53.624;10.106;2023-03-09T02:57:14;6.90;;;4.37;;
4921;SDS011;16625;53.624;10.106;2023-03-09T02:59:41;6.80;;;5.07;;
4921;SDS011;16625;53.624;10.106;2023-03-09T03:02:12;9.07;;;5.53;;
4921;SDS011;16625;53.624;10.106;2023-03-09T03:04:39;9.13;;;5.70;;
4921;SDS011;16625;53.624;10.106;2023-03-09T03:07:06;7.27;;;4.97;;
4921;SDS011;16625;53.624;10.106;2023-03-09T03:09:33;7.13;;;5.53;;
4921;SDS011;16625;53.624;10.106;2023-03-09T03:12:00;8.40;;;5.07;;
4921;SDS011;16625;53.624;10.106;2023-03-09T03:14:27;6.40;;;4.87;;
4921;SDS011;16625;53.624;10.106;2023-03-09T03:16:54;6.77;;;5.90;;
4921;SDS011;16625;53.624;10.106;2023-03-09T03:19:23;7.00;;;5.30;;
4921;SDS011;16625;53.624;10.106;2023-03-09T03:21:50;4.93;;;4.23;;
4921;SDS011;16625;53.624;10.106;2023-03-09T03:24:17;5.77;;;3.97;;
4921;SDS011;16625;53.624;10.106;2023-03-09T03:26:44;6.90;;;5.87;;
4921;SDS011;16625;53.624;10.106;2023-03-09T03:29:11;8.53;;;5.77;;
4921;SDS011;16625;53.624;10.106;2023-03-09T03:31:38;9.33;;;6.67;;
4921;SDS011;16625;53.624;10.106;2023-03-09T03:34:07;8.30;;;4.70;;
4921;SDS011;16625;53.624;10.106;2023-03-09T03:36:36;10.77;;;5.47;;
4921;SDS011;16625;53.624;10.106;2023-03-09T03:39:03;8.50;;;5.20;;
4921;SDS011;16625;53.624;10.106;2023-03-09T03:41:30;15.40;;;5.23;;
4921;SDS011;16625;53.624;10.106;2023-03-09T03:43:57;6.43;;;5.03;;
4921;SDS011;16625;53.624;10.106;2023-03-09T03:46:24;11.50;;;5.83;;
4921;SDS011;16625;53.624;10.106;2023-03-09T03:48:51;12.40;;;5.60;;
4921;SDS011;16625;53.624;10.106;2023-03-09T03:51:18;9.03;;;5.47;;
4921;SDS011;16625;53.624;10.106;2023-03-09T03:53:48;9.70;;;5.77;;
4921;SDS011;16625;53.624;10.106;2023-03-09T03:56:15;13.00;;;6.70;;
4921;SDS011;16625;53.624;10.106;2023-03-09T03:58:42;10.87;;;5.97;;
4921;SDS011;16625;53.624;10.106;2023-03-09T04:01:11;9.63;;;5.83;;
4921;SDS011;16625;53.624;10.106;2023-03-09T04:03:38;7.30;;;4.90;;
4921;SDS011;16625;53.624;10.106;2023-03-09T04:06:05;7.73;;;4.97;;
4921;SDS011;16625;53.624;10.106;2023-03-09T04:08:33;6.87;;;4.90;;
4921;SDS011;16625;53.624;10.106;2023-03-09T04:11:05;8.33;;;5.83;;
4921;SDS011;16625;53.624;10.106;2023-03-09T04:13:33;13.10;;;5.83;;
4921;SDS011;16625;53.624;10.106;2023-03-09T04:16:00;6.43;;;5.20;;
4921;SDS011;16625;53.624;10.106;2023-03-09T04:18:27;9.73;;;6.40;;
4921;SDS011;16625;53.624;10.106;2023-03-09T04:20:54;9.27;;;6.37;;
4921;SDS011;16625;53.624;10.106;2023-03-09T04:23:21;7.90;;;5.50;;
4921;SDS011;16625;53.624;10.106;2023-03-09T04:25:55;11.00;;;6.47;;
4921;SDS011;16625;53.624;10.106;2023-03-09T04:28:24;17.33;;;6.60;;
4921;SDS011;16625;53.624;10.106;2023-03-09T04:30:52;9.77;;;6.00;;
4921;SDS011;16625;53.624;10.106;2023-03-09T04:33:19;9.07;;;5.57;;
4921;SDS011;16625;53.624;10.106;2023-03-09T04:35:46;11.27;;;5.70;;
4921;SDS011;16625;53.624;10.106;2023-03-09T04:38:13;11.57;;;6.40;;
4921;SDS011;16625;53.624;10.106;2023-03-09T04:40:41;6.73;;;5.30;;
4921;SDS011;16625;53.624;10.106;2023-03-09T04:43:08;9.10;;;5.23;;
4921;SDS011;16625;53.624;10.106;2023-03-09T04:45:36;10.20;;;5.70;;
4921;SDS011;16625;53.624;10.106;2023-03-09T04:48:03;9.13;;;6.30;;
4921;SDS011;16625;53.624;10.106;2023-03-09T04:50:30;10.00;;;6.60;;
4921;SDS011;16625;53.624;10.106;2023-03-09T04:52:57;15.13;;;6.70;;
4921;SDS011;16625;53.624;10.106;2023-03-09T04:55:24;10.83;;;7.10;;
4921;SDS011;16625;53.624;10.106;2023-03-09T04:57:51;10.77;;;6.30;;
4921;SDS011;16625;53.624;10.106;2023-03-09T05:00:18;12.43;;;6.10;;
4921;SDS011;16625;53.624;10.106;2023-03-09T05:02:47;11.77;;;5.40;;
4921;SDS011;16625;53.624;10.106;2023-03-09T05:05:15;10.20;;;6.43;;
4921;SDS011;16625;53.624;10.106;2023-03-09T05:07:43;9.43;;;6.47;;
4921;SDS011;16625;53.624;10.106;2023-03-09T05:10:12;8.47;;;6.00;;
4921;SDS011;16625;53.624;10.106;2023-03-09T05:12:42;11.43;;;6.70;;
4921;SDS011;16625;53.624;10.106;2023-03-09T05:15:11;13.90;;;6.73;;
4921;SDS011;16625;53.624;10.106;2023-03-09T05:17:38;12.20;;;7.40;;
4921;SDS011;16625;53.624;10.106;2023-03-09T05:20:07;13.50;;;6.70;;
4921;SDS011;16625;53.624;10.106;2023-03-09T05:22:39;9.40;;;6.50;;
4921;SDS011;16625;53.624;10.106;2023-03-09T05:25:06;14.13;;;6.30;;
4921;SDS011;16625;53.624;10.106;2023-03-09T05:27:36;11.50;;;7.30;;
4921;SDS011;16625;53.624;10.106;2023-03-09T05:30:03;11.60;;;6.60;;
4921;SDS011;16625;53.624;10.106;2023-03-09T05:32:31;11.87;;;6.60;;
4921;SDS011;16625;53.624;10.106;2023-03-09T05:34:58;20.13;;;7.47;;
4921;SDS011;16625;53.624;10.106;2023-03-09T05:37:26;11.90;;;7.00;;
4921;SDS011;16625;53.624;10.106;2023-03-09T05:39:53;10.83;;;6.30;;
4921;SDS011;16625;53.624;10.106;2023-03-09T05:42:20;9.37;;;6.13;;
4921;SDS011;16625;53.624;10.106;2023-03-09T05:44:47;11.27;;;7.03;;
4921;SDS011;16625;53.624;10.106;2023-03-09T05:47:14;15.20;;;6.63;;
4921;SDS011;16625;53.624;10.106;2023-03-09T05:49:41;11.23;;;6.27;;
4921;SDS011;16625;53.624;10.106;2023-03-09T05:52:08;13.20;;;8.10;;
4921;SDS011;16625;53.624;10.106;2023-03-09T05:54:42;13.43;;;7.50;;
4921;SDS011;16625;53.624;10.106;2023-03-09T05:57:11;15.10;;;8.23;;
4921;SDS011;16625;53.624;10.106;2023-03-09T05:59:38;11.03;;;6.47;;
4921;SDS011;16625;53.624;10.106;2023-03-09T06:02:05;12.80;;;8.10;;
4921;SDS011;16625;53.624;10.106;2023-03-09T06:04:32;13.20;;;7.13;;
4921;SDS011;16625;53.624;10.106;2023-03-09T06:07:00;13.60;;;7.27;;
4921;SDS011;16625;53.624;10.106;2023-03-09T06:09:29;9.80;;;6.37;;
4921;SDS011;16625;53.624;10.106;2023-03-09T06:11:57;11.23;;;7.13;;
4921;SDS011;16625;53.624;10.106;2023-03-09T06:14:24;14.30;;;7.37;;
4921;SDS011;16625;53.624;10.106;2023-03-09T06:16:52;15.73;;;8.00;;
4921;SDS011;16625;53.624;10.106;2023-03-09T06:19:19;13.43;;;7.93;;
4921;SDS011;16625;53.624;10.106;2023-03-09T06:21:46;14.17;;;7.27;;
4921;SDS011;16625;53.624;10.106;2023-03-09T06:24:13;11.90;;;5.97;;
4921;SDS011;16625;53.624;10.106;2023-03-09T06:26:40;10.47;;;7.07;;
4921;SDS011;16625;53.624;10.106;2023-03-09T06:29:09;12.17;;;8.40;;
4921;SDS011;16625;53.624;10.106;2023-03-09T06:31:36;11.30;;;7.70;;
4921;SDS011;16625;53.624;10.106;2023-03-09T06:34:05;12.50;;;7.77;;
4921;SDS011;16625;53.624;10.106;2023-03-09T06:36:32;13.43;;;7.27;;
4921;SDS011;16625;53.624;10.106;2023-03-09T06:39:00;12.93;;;8.37;;
4921;SDS011;16625;53.624;10.106;2023-03-09T06:41:27;12.30;;;7.50;;
4921;SDS011;16625;53.624;10.106;2023-03-09T06:43:57;13.93;;;7.30;;
4921;SDS011;16625;53.624;10.106;2023-03-09T06:46:26;20.23;;;9.27;;
4921;SDS011;16625;53.624;10.106;2023-03-09T06:48:53;20.50;;;7.60;;
4921;SDS011;16625;53.624;10.106;2023-03-09T06:51:20;13.67;;;7.20;;
4921;SDS011;16625;53.624;10.106;2023-03-09T06:53:49;16.73;;;7.77;;
4921;SDS011;16625;53.624;10.106;2023-03-09T06:56:44;17.03;;;6.70;;
4921;SDS011;16625;53.624;10.106;2023-03-09T06:59:23;11.60;;;6.47;;
4921;SDS011;16625;53.624;10.106;2023-03-09T07:01:53;9.93;;;7.73;;
4921;SDS011;16625;53.624;10.106;2023-03-09T07:04:50;15.03;;;7.70;;
4921;SDS011;16625;53.624;10.106;2023-03-09T07:07:10;13.67;;;7.80;;
4921;SDS011;16625;53.624;10.106;2023-03-09T07:09:43;15.33;;;8.60;;
4921;SDS011;16625;53.624;10.106;2023-03-09T07:12:12;14.97;;;8.57;;
4921;SDS011;16625;53.624;10.106;2023-03-09T07:14:39;15.10;;;8.03;;
4921;SDS011;16625;53.624;10.106;2023-03-09T07:17:09;12.40;;;7.77;;
4921;SDS011;16625;53.624;10.106;2023-03-09T07:19:38;14.63;;;7.23;;
4921;SDS011;16625;53.624;10.106;2023-03-09T07:22:05;14.50;;;8.83;;
4921;SDS011;16625;53.624;10.106;2023-03-09T07:24:33;10.70;;;6.57;;
4921;SDS011;16625;53.624;10.106;2023-03-09T07:27:00;11.87;;;7.70;;
4921;SDS011;16625;53.624;10.106;2023-03-09T07:29:27;12.17;;;8.13;;
4921;SDS011;16625;53.624;10.106;2023-03-09T07:31:55;22.33;;;7.83;;
4921;SDS011;16625;53.624;10.106;2023-03-09T07:34:23;16.10;;;8.50;;
4921;SDS011;16625;53.624;10.106;2023-03-09T07:36:58;12.60;;;7.50;;
4921;SDS011;16625;53.624;10.106;2023-03-09T07:39:26;19.90;;;7.60;;
4921;SDS011;16625;53.624;10.106;2023-03-09T07:41:53;13.43;;;8.10;;
4921;SDS011;16625;53.624;10.106;2023-03-09T07:44:20;10.87;;;7.10;;
4921;SDS011;16625;53.624;10.106;2023-03-09T07:46:47;18.43;;;9.43;;
4921;SDS011;16625;53.624;10.106;2023-03-09T07:49:14;10.10;;;6.93;;
4921;SDS011;16625;53.624;10.106;2023-03-09T07:51:45;13.50;;;7.87;;
4921;SDS011;16625;53.624;10.106;2023-03-09T07:54:18;12.97;;;8.97;;
4921;SDS011;16625;53.624;10.106;2023-03-09T07:56:45;15.07;;;8.10;;
4921;SDS011;16625;53.624;10.106;2023-03-09T07:59:18;15.50;;;8.53;;
4921;SDS011;16625;53.624;10.106;2023-03-09T08:01:45;17.87;;;9.27;;
4921;SDS011;16625;53.624;10.106;2023-03-09T08:04:13;12.00;;;8.50;;
4921;SDS011;16625;53.624;10.106;2023-03-09T08:06:41;14.83;;;8.47;;
4921;SDS011;16625;53.624;10.106;2023-03-09T08:09:10;13.80;;;8.90;;
4921;SDS011;16625;53.624;10.106;2023-03-09T08:11:39;15.33;;;8.10;;
4921;SDS011;16625;53.624;10.106;2023-03-09T08:14:08;19.37;;;8.57;;
4921;SDS011;16625;53.624;10.106;2023-03-09T08:16:35;13.97;;;8.50;;
4921;SDS011;16625;53.624;10.106;2023-03-09T08:19:02;14.57;;;8.47;;
4921;SDS011;16625;53.624;10.106;2023-03-09T08:21:29;12.83;;;8.57;;
4921;SDS011;16625;53.624;10.106;2023-03-09T08:23:57;16.23;;;8.97;;
4921;SDS011;16625;53.624;10.106;2023-03-09T08:26:26;11.90;;;7.90;;
4921;SDS011;16625;53.624;10.106;2023-03-09T08:28:53;11.23;;;7.43;;
4921;SDS011;16625;53.624;10.106;2023-03-09T08:31:20;11.17;;;7.57;;
4921;SDS011;16625;53.624;10.106;2023-03-09T08:33:48;14.37;;;8.03;;
4921;SDS011;16625;53.624;10.106;2023-03-09T08:36:15;16.73;;;8.10;;
4921;SDS011;16625;53.624;10.106;2023-03-09T08:38:44;14.33;;;7.47;;
4921;SDS011;16625;53.624;10.106;2023-03-09T08:41:12;12.20;;;7.83;;
4921;SDS011;16625;53.624;10.106;2023-03-09T08:43:41;12.47;;;8.80;;
4921;SDS011;16625;53.624;10.106;2023-03-09T08:46:08;17.67;;;9.47;;
4921;SDS011;16625;53.624;10.106;2023-03-09T08:48:35;12.60;;;7.30;;
4921;SDS011;16625;53.624;10.106;2023-03-09T08:51:03;14.43;;;8.60;;
4921;SDS011;16625;53.624;10.106;2023-03-09T08:53:32;18.77;;;7.60;;
4921;SDS011;16625;53.624;10.106;2023-03-09T08:56:01;15.83;;;7.40;;
4921;SDS011;16625;53.624;10.106;2023-03-09T08:58:29;13.97;;;6.87;;
4921;SDS011;16625;53.624;10.106;2023-03-09T09:00:57;19.37;;;8.90;;
4921;SDS011;16625;53.624;10.106;2023-03-09T09:03:26;10.87;;;6.20;;
4921;SDS011;16625;53.624;10.106;2023-03-09T09:05:53;10.67;;;7.00;;
4921;SDS011;16625;53.624;10.106;2023-03-09T09:08:20;21.33;;;7.40;;
4921;SDS011;16625;53.624;10.106;2023-03-09T09:10:47;21.00;;;6.83;;
4921;SDS011;16625;53.624;10.106;2023-03-09T09:13:14;14.30;;;7.90;;
4921;SDS011;16625;53.624;10.106;2023-03-09T09:15:42;10.40;;;6.90;;
4921;SDS011;16625;53.624;10.106;2023-03-09T09:18:10;9.40;;;5.97;;
4921;SDS011;16625;53.624;10.106;2023-03-09T09:20:38;9.87;;;5.70;;
4921;SDS011;16625;53.624;10.106;2023-03-09T09:23:05;12.67;;;6.90;;
4921;SDS011;16625;53.624;10.106;2023-03-09T09:25:32;12.17;;;7.03;;
4921;SDS011;16625;53.624;10.106;2023-03-09T09:27:59;10.43;;;6.40;;
4921;SDS011;16625;53.624;10.106;2023-03-09T09:30:26;12.03;;;6.53;;
4921;SDS011;16625;53.624;10.106;2023-03-09T09:32:57;15.30;;;7.50;;
4921;SDS011;16625;53.624;10.106;2023-03-09T09:35:25;14.50;;;5.87;;
4921;SDS011;16625;53.624;10.106;2023-03-09T09:37:52;10.20;;;6.53;;
4921;SDS011;16625;53.624;10.106;2023-03-09T09:43:13;9.73;;;5.47;;
4921;SDS011;16625;53.624;10.106;2023-03-09T09:45:41;8.53;;;5.67;;
4921;SDS011;16625;53.624;10.106;2023-03-09T09:48:12;15.57;;;7.83;;
4921;SDS011;16625;53.624;10.106;2023-03-09T09:50:52;9.87;;;6.00;;
4921;SDS011;16625;53.624;10.106;2023-03-09T09:53:33;10.80;;;6.50;;
4921;SDS011;16625;53.624;10.106;2023-03-09T09:56:08;9.60;;;6.33;;
4921;SDS011;16625;53.624;10.106;2023-03-09T09:58:40;16.23;;;7.93;;
4921;SDS011;16625;53.624;10.106;2023-03-09T10:01:16;10.70;;;6.83;;
4921;SDS011;16625;53.624;10.106;2023-03-09T10:03:48;13.17;;;6.30;;
4921;SDS011;16625;53.624;10.106;2023-03-09T10:06:19;18.13;;;7.27;;
4921;SDS011;16625;53.624;10.106;2023-03-09T10:08:48;9.90;;;6.57;;
4921;SDS011;16625;53.624;10.106;2023-03-09T10:11:21;9.40;;;6.73;;
4921;SDS011;16625;53.624;10.106;2023-03-09T10:13:51;9.83;;;6.50;;
4921;SDS011;16625;53.624;10.106;2023-03-09T10:16:28;9.77;;;5.80;;
4921;SDS011;16625;53.624;10.106;2023-03-09T10:18:58;8.70;;;6.10;;
4921;SDS011;16625;53.624;10.106;2023-03-09T10:21:40;10.43;;;6.50;;
4921;SDS011;16625;53.624;10.106;2023-03-09T10:24:16;9.77;;;6.17;;
4921;SDS011;16625;53.624;10.106;2023-03-09T10:26:54;11.00;;;6.63;;
4921;SDS011;16625;53.624;10.106;2023-03-09T10:29:25;9.40;;;6.87;;
4921;SDS011;16625;53.624;10.106;2023-03-09T10:32:02;14.30;;;7.80;;
4921;SDS011;16625;53.624;10.106;2023-03-09T10:34:39;7.67;;;5.70;;
4921;SDS011;16625;53.624;10.106;2023-03-09T10:37:20;10.10;;;6.87;;
4921;SDS011;16625;53.624;10.106;2023-03-09T10:39:50;8.47;;;6.03;;
4921;SDS011;16625;53.624;10.106;2023-03-09T10:42:17;12.30;;;6.60;;
4921;SDS011;16625;53.624;10.106;2023-03-09T10:44:47;12.77;;;6.33;;
4921;SDS011;16625;53.624;10.106;2023-03-09T10:47:27;7.83;;;6.30;;
4921;SDS011;16625;53.624;10.106;2023-03-09T10:50:20;7.83;;;5.73;;
4921;SDS011;16625;53.624;10.106;2023-03-09T10:52:49;15.80;;;6.23;;
4921;SDS011;16625;53.624;10.106;2023-03-09T10:58:16;8.43;;;5.43;;
4921;SDS011;16625;53.624;10.106;2023-03-09T11:00:50;7.80;;;5.47;;
4921;SDS011;16625;53.624;10.106;2023-03-09T11:03:23;9.03;;;5.70;;
4921;SDS011;16625;53.624;10.106;2023-03-09T11:05:51;12.70;;;6.17;;
4921;SDS011;16625;53.624;10.106;2023-03-09T11:08:22;7.03;;;4.67;;
4921;SDS011;16625;53.624;10.106;2023-03-09T11:11:01;7.43;;;5.43;;
4921;SDS011;16625;53.624;10.106;2023-03-09T11:13:30;8.23;;;5.70;;
4921;SDS011;16625;53.624;10.106;2023-03-09T11:16:04;7.87;;;5.20;;
4921;SDS011;16625;53.624;10.106;2023-03-09T11:18:38;8.37;;;5.67;;
4921;SDS011;16625;53.624;10.106;2023-03-09T11:21:05;8.60;;;6.00;;
4921;SDS011;16625;53.624;10.106;2023-03-09T11:23:35;8.80;;;5.10;;
4921;SDS011;16625;53.624;10.106;2023-03-09T11:26:08;7.63;;;5.23;;
4921;SDS011;16625;53.624;10.106;2023-03-09T11:28:41;7.17;;;4.83;;
4921;SDS011;16625;53.624;10.106;2023-03-09T11:31:14;9.13;;;5.60;;
4921;SDS011;16625;53.624;10.106;2023-03-09T11:33:42;6.77;;;5.27;;
4921;SDS011;16625;53.624;10.106;2023-03-09T11:36:13;19.40;;;5.90;;
4921;SDS011;16625;53.624;10.106;2023-03-09T11:38:44;10.83;;;4.93;;
4921;SDS011;16625;53.624;10.106;2023-03-09T11:41:14;7.90;;;5.70;;
4921;SDS011;16625;53.624;10.106;2023-03-09T11:43:46;17.13;;;5.47;;
4921;SDS011;16625;53.624;10.106;2023-03-09T11:46:16;9.10;;;5.70;;
4921;SDS011;16625;53.624;10.106;2023-03-09T11:48:45;7.87;;;4.53;;
4921;SDS011;16625;53.624;10.106;2023-03-09T11:51:16;7.27;;;5.00;;
4921;SDS011;16625;53.624;10.106;2023-03-09T11:53:52;11.60;;;6.30;;
4921;SDS011;16625;53.624;10.106;2023-03-09T11:56:27;8.83;;;5.70;;
4921;SDS011;16625;53.624;10.106;2023-03-09T11:59:00;7.33;;;5.47;;
4921;SDS011;16625;53.624;10.106;2023-03-09T12:01:32;10.73;;;6.43;;
4921;SDS011;16625;53.624;10.106;2023-03-09T12:04:04;13.77;;;5.27;;
4921;SDS011;16625;53.624;10.106;2023-03-09T12:06:35;9.10;;;5.53;;
4921;SDS011;16625;53.624;10.106;2023-03-09T12:09:09;9.23;;;5.80;;
4921;SDS011;16625;53.624;10.106;2023-03-09T12:11:49;9.00;;;5.83;;
4921;SDS011;16625;53.624;10.106;2023-03-09T12:14:19;12.63;;;5.80;;
4921;SDS011;16625;53.624;10.106;2023-03-09T12:16:50;9.67;;;6.17;;
4921;SDS011;16625;53.624;10.106;2023-03-09T12:19:20;9.07;;;5.17;;
4921;SDS011;16625;53.624;10.106;2023-03-09T12:21:57;9.23;;;5.93;;
4921;SDS011;16625;53.624;10.106;2023-03-09T12:24:30;9.10;;;5.33;;
4921;SDS011;16625;53.624;10.106;2023-03-09T12:27:01;8.93;;;4.83;;
4921;SDS011;16625;53.624;10.106;2023-03-09T12:29:35;9.93;;;4.90;;
4921;SDS011;16625;53.624;10.106;2023-03-09T12:35:04;6.93;;;5.27;;
4921;SDS011;16625;53.624;10.106;2023-03-09T12:37:49;7.60;;;5.33;;
4921;SDS011;16625;53.624;10.106;2023-03-09T12:40:29;7.63;;;5.80;;
4921;SDS011;16625;53.624;10.106;2023-03-09T12:49:20;8.40;;;5.50;;
4921;SDS011;16625;53.624;10.106;2023-03-09T12:51:58;10.00;;;6.00;;
4921;SDS011;16625;53.624;10.106;2023-03-09T12:54:38;14.57;;;7.93;;
4921;SDS011;16625;53.624;10.106;2023-03-09T12:57:16;8.00;;;5.67;;
4921;SDS011;16625;53.624;10.106;2023-03-09T12:59:46;6.37;;;5.13;;
4921;SDS011;16625;53.624;10.106;2023-03-09T13:05:17;8.80;;;5.93;;
4921;SDS011;16625;53.624;10.106;2023-03-09T13:07:53;11.13;;;5.93;;
4921;SDS011;16625;53.624;10.106;2023-03-09T13:10:26;8.90;;;6.20;;
4921;SDS011;16625;53.624;10.106;2023-03-09T13:13:08;9.87;;;6.10;;
4921;SDS011;16625;53.624;10.106;2023-03-09T13:22:17;8.10;;;5.70;;
4921;SDS011;16625;53.624;10.106;2023-03-09T13:24:46;13.83;;;5.17;;
4921;SDS011;16625;53.624;10.106;2023-03-09T13:27:14;8.10;;;5.10;;
4921;SDS011;16625;53.624;10.106;2023-03-09T13:29:49;7.07;;;4.60;;
4921;SDS011;16625;53.624;10.106;2023-03-09T13:32:21;9.40;;;5.90;;
4921;SDS011;16625;53.624;10.106;2023-03-09T13:34:52;8.17;;;5.67;;
4921;SDS011;16625;53.624;10.106;2023-03-09T13:37:21;7.07;;;5.50;;
4921;SDS011;16625;53.624;10.106;2023-03-09T13:39:56;7.00;;;5.43;;
4921;SDS011;16625;53.624;10.106;2023-03-09T13:42:25;7.10;;;5.13;;
4921;SDS011;16625;53.624;10.106;2023-03-09T13:44:58;8.50;;;5.17;;
4921;SDS011;16625;53.624;10.106;2023-03-09T13:47:27;9.00;;;5.47;;
4921;SDS011;16625;53.624;10.106;2023-03-09T13:49:56;9.63;;;5.67;;
4921;SDS011;16625;53.624;10.106;2023-03-09T13:52:26;7.30;;;5.50;;
4921;SDS011;16625;53.624;10.106;2023-03-09T13:54:54;7.77;;;4.43;;
4921;SDS011;16625;53.624;10.106;2023-03-09T13:57:22;7.30;;;4.87;;
4921;SDS011;16625;53.624;10.106;2023-03-09T13:59:52;8.40;;;5.27;;
4921;SDS011;16625;53.624;10.106;2023-03-09T14:02:23;10.07;;;5.47;;
4921;SDS011;16625;53.624;10.106;2023-03-09T14:05:00;9.30;;;5.90;;
4921;SDS011;16625;53.624;10.106;2023-03-09T14:07:31;8.37;;;5.70;;
4921;SDS011;16625;53.624;10.106;2023-03-09T14:10:03;8.87;;;5.77;;
4921;SDS011;16625;53.624;10.106;2023-03-09T14:12:33;8.50;;;4.57;;
4921;SDS011;16625;53.624;10.106;2023-03-09T14:15:03;11.17;;;5.30;;
4921;SDS011;16625;53.624;10.106;2023-03-09T14:17:34;7.13;;;5.10;;
4921;SDS011;16625;53.624;10.106;2023-03-09T14:20:03;8.90;;;4.97;;
4921;SDS011;16625;53.624;10.106;2023-03-09T14:22:30;7.70;;;4.77;;
4921;SDS011;16625;53.624;10.106;2023-03-09T14:24:58;7.77;;;5.17;;
4921;SDS011;16625;53.624;10.106;2023-03-09T14:27:28;7.63;;;4.50;;
4921;SDS011;16625;53.624;10.106;2023-03-09T14:29:56;8.30;;;4.33;;
4921;SDS011;16625;53.624;10.106;2023-03-09T14:32:27;7.70;;;4.67;;
4921;SDS011;16625;53.624;10.106;2023-03-09T14:34:57;8.47;;;5.20;;
4921;SDS011;16625;53.624;10.106;2023-03-09T14:37:51;10.93;;;5.33;;
4921;SDS011;16625;53.624;10.106;2023-03-09T14:40:22;10.77;;;5.13;;
4921;SDS011;16625;53.624;10.106;2023-03-09T14:42:50;10.37;;;5.73;;
4921;SDS011;16625;53.624;10.106;2023-03-09T14:45:19;13.50;;;6.53;;
4921;SDS011;16625;53.624;10.106;2023-03-09T14:47:50;9.80;;;6.07;;
4921;SDS011;16625;53.624;10.106;2023-03-09T14:50:21;10.43;;;5.83;;
4921;SDS011;16625;53.624;10.106;2023-03-09T14:52:51;7.17;;;5.47;;
4921;SDS011;16625;53.624;10.106;2023-03-09T14:55:19;16.00;;;5.87;;
4921;SDS011;16625;53.624;10.106;2023-03-09T14:57:48;8.70;;;5.60;;
4921;SDS011;16625;53.624;10.106;2023-03-09T15:00:16;7.33;;;5.87;;
4921;SDS011;16625;53.624;10.106;2023-03-09T15:02:44;9.47;;;6.00;;
4921;SDS011;16625;53.624;10.106;2023-03-09T15:05:13;7.43;;;5.17;;
4921;SDS011;16625;53.624;10.106;2023-03-09T15:07:42;11.93;;;6.00;;
4921;SDS011;16625;53.624;10.106;2023-03-09T15:10:10;7.93;;;5.27;;
4921;SDS011;16625;53.624;10.106;2023-03-09T15:12:41;8.37;;;5.80;;
4921;SDS011;16625;53.624;10.106;2023-03-09T15:15:11;9.43;;;6.03;;
4921;SDS011;16625;53.624;10.106;2023-03-09T15:17:43;6.87;;;4.47;;
4921;SDS011;16625;53.624;10.106;2023-03-09T15:20:12;10.50;;;5.40;;
4921;SDS011;16625;53.624;10.106;2023-03-09T15:22:41;7.50;;;4.87;;
4921;SDS011;16625;53.624;10.106;2023-03-09T15:25:09;8.50;;;5.20;;